Time;durP1;ratioP1;P1;durP2;ratioP2;P2;SDS_P1;SDS_P2;PMS_P1;PMS_P2;Temp;Humidity;BMP_temperature;BMP_pressure;BME280_temperature;BME280_humidity;BME280_pressure;Samples;Min_cycle;Max_cycle;Signal;HPM_P1;HPM_P2
2021/05/16 00:00:56;;;;;;;4.80;1.25;;;10.20;99.90;;;;;;5007646;28;20060;-88
2021/05/16 00:03:22;;;;;;;3.30;1.33;;;10.20;99.90;;;;;;5008027;28;20030;-89
2021/05/16 00:06:08;;;;;;;8.00;1.58;;;10.20;99.90;;;;;;5007387;28;20050;-86
2021/05/16 00:08:34;;;;;;;8.32;2.88;;;10.30;99.90;;;;;;4947661;29;20054;-91
2021/05/16 00:11:01;;;;;;;7.50;2.42;;;10.30;99.90;;;;;;4947675;29;20040;-89
2021/05/16 00:13:27;;;;;;;6.18;2.42;;;10.30;99.90;;;;;;4947671;29;20075;-86
2021/05/16 00:15:52;;;;;;;5.70;2.67;;;10.30;99.90;;;;;;4915691;29;20144;-90
2021/05/16 00:18:18;;;;;;;6.00;2.15;;;10.30;99.90;;;;;;4915706;29;20112;-88
2021/05/16 00:20:44;;;;;;;6.97;2.63;;;10.40;99.90;;;;;;4915624;29;20103;-87
2021/05/16 00:23:11;;;;;;;7.65;2.90;;;10.40;99.90;;;;;;4931559;29;20035;-87
2021/05/16 00:25:37;;;;;;;6.93;2.83;;;10.40;99.90;;;;;;4931371;29;20112;-83
2021/05/16 00:28:03;;;;;;;6.07;1.70;;;10.40;99.90;;;;;;4947169;29;20041;-83
2021/05/16 00:30:29;;;;;;;10.00;3.20;;;10.40;99.90;;;;;;4931149;29;20028;-83
2021/05/16 00:32:56;;;;;;;7.10;2.28;;;10.30;99.90;;;;;;4947203;29;20449;-83
2021/05/16 00:35:24;;;;;;;11.48;2.72;;;10.30;99.90;;;;;;4931268;29;20042;-88
2021/05/16 00:37:51;;;;;;;6.72;2.53;;;10.40;99.90;;;;;;4931081;29;20035;-87
2021/05/16 00:40:17;;;;;;;8.32;2.17;;;10.40;99.90;;;;;;4930760;29;20059;-85
2021/05/16 00:42:44;;;;;;;10.10;2.15;;;10.40;99.90;;;;;;4931213;29;20046;-84
2021/05/16 00:45:14;;;;;;;6.32;2.28;;;10.30;99.90;;;;;;4959214;28;20051;-85
2021/05/16 00:47:52;;;;;;;7.07;1.92;;;10.30;99.90;;;;;;4954181;28;20576;-80
2021/05/16 00:50:20;;;;;;;5.90;1.85;;;10.30;99.90;;;;;;4970362;28;20023;-89
2021/05/16 00:52:46;;;;;;;9.77;1.75;;;10.30;99.90;;;;;;4987237;28;20094;-83
2021/05/16 00:55:13;;;;;;;5.22;1.48;;;10.30;99.90;;;;;;4986307;28;20094;-81
2021/05/16 00:57:40;;;;;;;5.18;1.40;;;10.30;99.90;;;;;;4970062;28;20037;-82
2021/05/16 01:00:09;;;;;;;5.80;1.40;;;10.30;99.90;;;;;;4985986;28;20035;-86
2021/05/16 01:02:37;;;;;;;3.78;1.40;;;10.30;99.90;;;;;;4970713;28;20054;-85
2021/05/16 01:05:05;;;;;;;6.47;1.20;;;10.30;99.90;;;;;;4986076;28;20038;-80
2021/05/16 01:07:31;;;;;;;4.53;1.02;;;10.30;99.90;;;;;;4985893;28;20050;-88
2021/05/16 01:09:56;;;;;;;7.32;1.30;;;10.30;99.90;;;;;;4985753;28;20041;-87
2021/05/16 01:12:30;;;;;;;7.47;1.60;;;10.30;99.90;;;;;;4985927;28;20019;-88
2021/05/16 01:14:58;;;;;;;4.78;1.30;;;10.30;99.90;;;;;;4986190;28;20042;-91
2021/05/16 01:17:24;;;;;;;7.63;1.30;;;10.30;99.90;;;;;;4953990;28;20095;-88
2021/05/16 01:19:50;;;;;;;4.78;1.15;;;10.20;99.90;;;;;;4988169;28;20035;-86
2021/05/16 01:22:15;;;;;;;4.70;1.10;;;10.20;99.90;;;;;;4989114;28;20106;-82
2021/05/16 01:24:45;;;;;;;5.57;1.08;;;10.30;99.90;;;;;;4993338;28;20065;-87
2021/05/16 01:27:13;;;;;;;7.05;1.25;;;10.30;99.90;;;;;;4973069;28;20031;-84
2021/05/16 01:29:39;;;;;;;7.20;2.20;;;10.30;99.90;;;;;;4989432;28;20061;-87
2021/05/16 01:32:10;;;;;;;7.13;1.50;;;10.30;99.90;;;;;;4988993;28;20138;-88
2021/05/16 01:34:41;;;;;;;7.40;1.67;;;10.20;99.90;;;;;;5005504;28;20031;-87
2021/05/16 01:37:10;;;;;;;8.13;2.00;;;10.20;99.90;;;;;;5006243;28;20026;-87
2021/05/16 01:39:38;;;;;;;15.30;2.38;;;10.30;99.90;;;;;;5006424;28;20057;-92
2021/05/16 01:42:04;;;;;;;14.32;2.67;;;10.20;99.90;;;;;;5006353;28;20030;-87
2021/05/16 01:44:33;;;;;;;14.40;2.85;;;10.30;99.90;;;;;;4973069;28;20053;-88
2021/05/16 01:47:01;;;;;;;13.70;3.35;;;10.30;99.90;;;;;;5006238;28;20274;-90
2021/05/16 01:49:57;;;;;;;13.65;2.85;;;10.20;99.90;;;;;;4989024;28;20061;-88
2021/05/16 01:52:30;;;;;;;11.05;1.83;;;10.20;99.90;;;;;;4992085;28;20062;-87
2021/05/16 01:54:56;;;;;;;16.17;3.00;;;10.20;99.90;;;;;;4988859;28;20041;-86
2021/05/16 01:57:22;;;;;;;11.63;2.08;;;10.20;99.90;;;;;;4988670;28;20019;-85
2021/05/16 01:59:48;;;;;;;16.38;3.05;;;10.30;99.90;;;;;;5006233;28;20060;-87
2021/05/16 02:02:15;;;;;;;11.10;2.00;;;10.30;99.90;;;;;;4988594;28;20030;-90
2021/05/16 02:04:42;;;;;;;11.90;2.67;;;10.30;99.90;;;;;;4990793;28;20122;-92
2021/05/16 02:07:11;;;;;;;10.13;1.55;;;10.20;99.90;;;;;;4992431;28;20529;-85
2021/05/16 02:09:41;;;;;;;11.77;1.95;;;10.20;99.90;;;;;;4992515;28;20054;-88
2021/05/16 02:12:11;;;;;;;7.70;1.60;;;10.30;99.90;;;;;;4976621;28;20033;-90
2021/05/16 02:14:37;;;;;;;12.55;2.42;;;10.20;99.90;;;;;;4976482;28;20034;-87
2021/05/16 02:17:05;;;;;;;10.43;1.55;;;10.20;99.90;;;;;;4992542;28;20546;-92
2021/05/16 02:19:31;;;;;;;8.93;1.83;;;10.20;99.90;;;;;;4976296;28;20073;-88
2021/05/16 02:21:58;;;;;;;8.80;1.20;;;10.20;99.90;;;;;;4976217;28;20033;-87
2021/05/16 02:24:26;;;;;;;11.50;1.70;;;10.20;99.90;;;;;;5009483;28;20030;-87
2021/05/16 02:27:17;;;;;;;13.60;1.58;;;10.20;99.90;;;;;;5003070;28;20061;-88
2021/05/16 02:29:53;;;;;;;9.10;1.45;;;10.20;99.90;;;;;;4992139;28;20042;-88
2021/05/16 02:32:20;;;;;;;10.18;1.63;;;10.20;99.90;;;;;;4991865;28;20038;-86
2021/05/16 02:34:47;;;;;;;11.82;2.65;;;10.20;99.90;;;;;;5008495;28;20026;-86
2021/05/16 02:37:21;;;;;;;11.30;1.73;;;10.20;99.90;;;;;;4991802;28;20530;-86
2021/05/16 02:39:47;;;;;;;15.48;2.25;;;10.10;99.90;;;;;;4991718;28;20045;-87
2021/05/16 02:42:13;;;;;;;7.35;1.13;;;10.20;99.90;;;;;;5008099;28;20030;-88
2021/05/16 02:44:39;;;;;;;10.60;1.50;;;10.20;99.90;;;;;;5009635;28;20049;-89
2021/05/16 02:47:06;;;;;;;17.13;2.42;;;10.20;99.90;;;;;;5008169;28;20030;-89
2021/05/16 02:49:32;;;;;;;12.57;2.60;;;10.20;99.90;;;;;;4991778;28;20030;-88
2021/05/16 02:51:58;;;;;;;16.40;2.30;;;10.10;99.90;;;;;;4991580;28;20032;-83
2021/05/16 02:54:24;;;;;;;12.80;2.03;;;10.20;99.90;;;;;;5009230;28;20032;-85
2021/05/16 02:56:50;;;;;;;11.38;1.45;;;10.10;99.90;;;;;;4991445;28;20058;-87
2021/05/16 02:59:18;;;;;;;14.27;1.90;;;10.10;99.90;;;;;;4991587;28;20041;-88
2021/05/16 03:01:44;;;;;;;11.30;2.25;;;10.10;99.90;;;;;;4991451;28;20035;-83
2021/05/16 03:04:11;;;;;;;18.35;2.25;;;10.10;99.90;;;;;;5007699;28;20030;-83
2021/05/16 03:09:32;;;;;;;;;;;10.10;99.90;;;;;;5008447;28;20093;-83
2021/05/16 03:11:58;;;;;;;15.40;2.55;;;10.10;99.90;;;;;;5024039;28;20296;-87
2021/05/16 03:14:25;;;;;;;13.48;2.08;;;10.10;99.90;;;;;;5024073;28;20106;-85
2021/05/16 03:16:51;;;;;;;8.77;1.58;;;10.10;99.90;;;;;;5007852;28;20022;-84
2021/05/16 03:19:17;;;;;;;15.52;2.55;;;10.10;99.90;;;;;;5008803;28;20038;-89
2021/05/16 03:21:45;;;;;;;15.15;2.17;;;10.10;99.90;;;;;;5008773;28;20082;-85
2021/05/16 03:24:11;;;;;;;8.13;1.63;;;10.10;99.90;;;;;;5007408;28;20030;-86
2021/05/16 03:26:37;;;;;;;15.13;2.55;;;10.10;99.90;;;;;;5023532;28;20041;-87
2021/05/16 03:29:04;;;;;;;10.40;2.08;;;10.10;99.90;;;;;;5007315;28;20503;-83
2021/05/16 03:31:30;;;;;;;16.17;2.70;;;10.10;99.90;;;;;;5006801;28;20031;-83
2021/05/16 03:33:56;;;;;;;15.73;2.72;;;10.10;99.90;;;;;;5023625;28;20037;-84
2021/05/16 03:36:21;;;;;;;21.38;3.50;;;10.10;99.90;;;;;;5023149;28;20081;-79
2021/05/16 03:38:47;;;;;;;14.70;2.30;;;10.10;99.90;;;;;;5006738;28;20030;-84
2021/05/16 03:41:14;;;;;;;20.50;3.50;;;10.10;99.90;;;;;;5006652;28;20049;-84
2021/05/16 03:43:40;;;;;;;14.57;2.95;;;10.10;99.90;;;;;;5023567;28;20046;-87
2021/05/16 03:46:06;;;;;;;17.52;3.35;;;10.10;99.90;;;;;;5007069;28;20041;-86
2021/05/16 03:48:31;;;;;;;15.77;2.83;;;10.10;99.90;;;;;;5007226;28;20038;-86
2021/05/16 03:50:58;;;;;;;17.30;4.00;;;10.10;99.90;;;;;;5023383;28;20122;-84
2021/05/16 03:53:24;;;;;;;15.48;3.60;;;10.10;99.90;;;;;;5006574;28;20030;-83
2021/05/16 03:55:49;;;;;;;12.45;3.40;;;10.10;99.90;;;;;;5022962;28;20475;-84
2021/05/16 03:58:15;;;;;;;11.65;3.17;;;10.20;99.90;;;;;;5022966;28;20034;-82
2021/05/16 04:00:41;;;;;;;18.40;3.90;;;10.10;99.90;;;;;;5022811;28;20074;-83
2021/05/16 04:03:07;;;;;;;11.55;3.42;;;10.10;99.90;;;;;;5006590;28;20058;-82
2021/05/16 04:05:33;;;;;;;15.85;4.10;;;10.10;99.90;;;;;;5006412;28;20045;-82
2021/05/16 04:07:59;;;;;;;14.38;2.92;;;10.10;99.90;;;;;;5006035;28;20043;-81
2021/05/16 04:10:25;;;;;;;19.80;5.85;;;10.10;99.90;;;;;;5007441;28;20038;-84
2021/05/16 04:12:50;;;;;;;16.05;3.47;;;10.10;99.90;;;;;;5007488;28;20038;-85
2021/05/16 04:15:16;;;;;;;17.17;4.40;;;10.10;99.90;;;;;;5022903;28;20098;-82
2021/05/16 04:17:42;;;;;;;16.50;4.25;;;10.10;99.90;;;;;;5005820;28;20049;-84
2021/05/16 04:20:09;;;;;;;11.80;4.40;;;10.10;99.90;;;;;;5007074;28;20060;-82
2021/05/16 04:22:34;;;;;;;16.05;4.38;;;10.10;99.90;;;;;;5007540;28;20030;-84
2021/05/16 04:25:00;;;;;;;14.55;3.70;;;10.10;99.90;;;;;;4996760;28;20129;-87
2021/05/16 04:27:26;;;;;;;18.77;5.38;;;10.10;99.90;;;;;;5039027;22;20081;-86
2021/05/16 04:29:54;;;;;;;15.88;5.22;;;10.10;99.90;;;;;;5012741;28;20087;-80
2021/05/16 04:32:20;;;;;;;12.50;3.95;;;10.00;99.90;;;;;;5013202;28;20029;-89
2021/05/16 04:34:46;;;;;;;17.38;4.72;;;10.10;99.90;;;;;;5012825;28;20390;-87
2021/05/16 04:37:12;;;;;;;19.38;4.95;;;10.00;99.90;;;;;;5012821;28;20088;-87
2021/05/16 04:39:37;;;;;;;22.40;5.13;;;10.00;99.90;;;;;;5046961;28;20125;-86
2021/05/16 04:42:03;;;;;;;15.65;3.80;;;10.10;99.90;;;;;;5012739;28;20022;-86
2021/05/16 04:44:29;;;;;;;18.08;4.25;;;10.10;99.90;;;;;;5046594;28;20087;-85
2021/05/16 04:46:54;;;;;;;18.00;4.80;;;10.10;99.90;;;;;;5029006;28;20025;-87
2021/05/16 04:49:20;;;;;;;12.20;3.80;;;10.10;99.90;;;;;;5046372;28;20470;-84
2021/05/16 04:51:46;;;;;;;14.40;2.95;;;10.10;99.90;;;;;;5011957;28;20477;-85
2021/05/16 04:54:11;;;;;;;14.38;3.10;;;10.10;99.90;;;;;;5045907;28;20093;-84
2021/05/16 04:56:38;;;;;;;13.35;3.30;;;10.10;99.90;;;;;;5028506;28;20037;-86
2021/05/16 04:59:05;;;;;;;15.85;2.83;;;10.10;99.90;;;;;;5027917;28;20394;-86
2021/05/16 05:01:30;;;;;;;15.73;2.80;;;10.20;99.90;;;;;;5045922;28;20497;-84
2021/05/16 05:03:56;;;;;;;7.47;2.15;;;10.20;99.90;;;;;;5045693;28;20029;-85
2021/05/16 05:06:23;;;;;;;17.80;4.63;;;10.20;99.90;;;;;;5027483;28;20112;-81
2021/05/16 05:08:49;;;;;;;15.63;4.47;;;10.10;99.90;;;;;;5045574;28;20466;-84
2021/05/16 05:11:14;;;;;;;18.75;5.13;;;10.20;99.90;;;;;;5045295;28;20030;-82
2021/05/16 05:13:40;;;;;;;20.23;4.90;;;10.20;99.90;;;;;;5045306;28;20291;-83
2021/05/16 05:16:06;;;;;;;16.88;4.07;;;10.20;99.90;;;;;;5044099;28;20037;-85
2021/05/16 05:18:33;;;;;;;17.33;4.85;;;10.20;99.90;;;;;;5045163;28;20026;-85
2021/05/16 05:21:00;;;;;;;20.92;4.47;;;10.20;99.90;;;;;;5011129;28;20045;-80
2021/05/16 05:23:27;;;;;;;21.05;5.93;;;10.20;99.90;;;;;;5044103;28;20033;-85
2021/05/16 05:25:55;;;;;;;14.68;4.43;;;10.20;99.90;;;;;;5061300;28;20021;-86
2021/05/16 05:28:21;;;;;;;17.67;5.28;;;10.20;99.90;;;;;;5044167;28;20505;-86
2021/05/16 05:30:46;;;;;;;21.58;4.57;;;10.20;99.90;;;;;;5011435;28;20022;-84
2021/05/16 05:33:12;;;;;;;16.63;3.72;;;10.30;99.90;;;;;;5027899;28;20037;-87
2021/05/16 05:35:38;;;;;;;17.40;4.05;;;10.30;99.90;;;;;;5045243;28;20029;-86
2021/05/16 05:38:03;;;;;;;17.30;4.30;;;10.30;99.90;;;;;;5027630;28;20485;-88
2021/05/16 05:40:29;;;;;;;16.73;3.83;;;10.30;99.90;;;;;;5048546;28;20065;-85
2021/05/16 05:42:55;;;;;;;16.80;3.90;;;10.40;99.90;;;;;;5049622;28;20033;-88
2021/05/16 05:45:20;;;;;;;20.15;4.32;;;10.40;99.90;;;;;;5031850;28;20105;-87
2021/05/16 05:47:46;;;;;;;18.75;4.72;;;10.40;99.90;;;;;;5048024;28;20037;-88
2021/05/16 05:50:12;;;;;;;16.00;3.67;;;10.50;99.90;;;;;;5035307;28;20057;-88
2021/05/16 05:52:38;;;;;;;17.48;4.45;;;10.50;99.90;;;;;;4992348;28;20114;-88
2021/05/16 05:55:04;;;;;;;14.07;5.07;;;10.50;99.90;;;;;;5009795;28;20120;-87
2021/05/16 05:57:29;;;;;;;14.27;4.28;;;10.50;99.90;;;;;;5009614;28;20057;-88
2021/05/16 05:59:55;;;;;;;14.38;4.40;;;10.50;99.90;;;;;;4991939;28;20060;-88
2021/05/16 06:02:21;;;;;;;14.90;5.20;;;10.40;99.90;;;;;;5009460;28;20061;-88
2021/05/16 06:04:46;;;;;;;27.35;6.97;;;10.40;99.90;;;;;;5008459;28;20041;-90
2021/05/16 06:07:12;;;;;;;16.48;4.13;;;10.40;99.90;;;;;;4991852;28;20038;-89
2021/05/16 06:09:38;;;;;;;20.60;6.28;;;10.50;99.90;;;;;;4992036;28;20041;-86
2021/05/16 06:12:05;;;;;;;20.33;6.68;;;10.50;99.90;;;;;;5008483;28;20034;-87
2021/05/16 06:14:33;;;;;;;27.45;8.07;;;10.60;99.90;;;;;;4991833;28;20058;-89
2021/05/16 06:16:58;;;;;;;23.08;8.13;;;10.60;99.90;;;;;;5024611;28;20057;-91
2021/05/16 06:19:24;;;;;;;24.05;9.73;;;10.60;99.90;;;;;;4997939;28;20128;-86
2021/05/16 06:21:50;;;;;;;17.20;7.45;;;10.60;99.90;;;;;;5000901;28;20099;-87
2021/05/16 06:24:15;;;;;;;22.15;8.60;;;10.70;99.90;;;;;;5017195;28;20041;-88
2021/05/16 06:26:45;;;;;;;23.20;8.82;;;10.70;99.90;;;;;;5030955;22;20061;-90
2021/05/16 06:29:12;;;;;;;19.92;8.32;;;10.70;99.90;;;;;;5011806;28;20072;-88
2021/05/16 06:31:41;;;;;;;20.42;7.72;;;10.70;99.90;;;;;;5028900;28;20061;-91
2021/05/16 06:34:07;;;;;;;21.38;7.25;;;10.70;99.90;;;;;;5011545;28;20033;-88
2021/05/16 06:36:32;;;;;;;17.52;6.65;;;10.70;99.90;;;;;;5028580;28;20033;-87
2021/05/16 06:38:58;;;;;;;25.73;8.10;;;10.90;99.90;;;;;;5011262;28;20077;-89
2021/05/16 06:41:24;;;;;;;20.17;6.75;;;10.80;99.90;;;;;;5011172;28;20045;-90
2021/05/16 06:43:51;;;;;;;24.33;7.00;;;11.00;99.90;;;;;;5011431;28;20034;-91
2021/05/16 06:46:17;;;;;;;22.88;7.97;;;11.10;99.90;;;;;;5026194;28;20057;-90
2021/05/16 06:48:46;;;;;;;24.58;8.80;;;11.20;99.90;;;;;;5011839;28;20042;-95
2021/05/16 06:51:13;;;;;;;20.77;7.65;;;11.30;99.90;;;;;;5011517;28;20053;-94
2021/05/16 06:53:39;;;;;;;26.52;9.05;;;11.30;99.90;;;;;;5011756;28;20041;-93
2021/05/16 06:56:12;;;;;;;25.42;8.18;;;11.30;99.90;;;;;;5011558;28;20030;-93
2021/05/16 06:58:37;;;;;;;29.00;9.82;;;11.30;99.90;;;;;;5011624;28;20133;-91
2021/05/16 07:01:03;;;;;;;27.05;9.15;;;11.10;99.90;;;;;;5010897;28;20053;-92
2021/05/16 07:03:29;;;;;;;23.80;8.30;;;11.20;99.90;;;;;;5010256;28;20089;-90
2021/05/16 07:06:15;;;;;;;15.02;6.85;;;11.30;99.90;;;;;;4991214;28;20030;-88
2021/05/16 07:08:40;;;;;;;22.88;9.00;;;11.40;99.90;;;;;;4916643;29;20036;-88
2021/05/16 07:11:06;;;;;;;19.83;6.85;;;11.40;99.90;;;;;;4947828;29;20050;-93
2021/05/16 07:13:32;;;;;;;17.20;7.53;;;11.70;99.90;;;;;;4948263;29;20043;-89
2021/05/16 07:15:58;;;;;;;22.85;7.97;;;11.80;99.90;;;;;;4931830;29;20035;-89
2021/05/16 07:18:24;;;;;;;20.85;6.28;;;11.80;99.90;;;;;;4947969;29;20062;-89
2021/05/16 07:20:51;;;;;;;19.20;6.40;;;11.90;99.90;;;;;;4932347;29;20075;-93
2021/05/16 07:23:17;;;;;;;17.50;5.68;;;11.80;99.90;;;;;;4947950;29;20130;-91
2021/05/16 07:25:42;;;;;;;24.73;7.30;;;11.90;99.90;;;;;;4947182;29;20043;-90
2021/05/16 07:28:08;;;;;;;23.65;5.80;;;12.10;99.90;;;;;;4950583;29;20051;-83
2021/05/16 07:30:34;;;;;;;21.55;6.32;;;12.20;99.90;;;;;;4950921;29;20031;-84
2021/05/16 07:33:00;;;;;;;17.48;6.50;;;12.10;99.90;;;;;;4951221;29;20119;-88
2021/05/16 07:35:26;;;;;;;19.48;6.88;;;12.10;99.90;;;;;;4951197;29;20041;-93
2021/05/16 07:37:51;;;;;;;24.77;6.80;;;12.10;99.90;;;;;;4950750;29;20482;-87
2021/05/16 07:40:17;;;;;;;17.35;6.80;;;12.30;99.90;;;;;;4950604;29;20086;-89
2021/05/16 07:42:44;;;;;;;18.83;6.00;;;12.30;99.90;;;;;;4950825;29;20027;-95
2021/05/16 07:45:12;;;;;;;12.98;6.40;;;12.50;99.90;;;;;;4972973;28;20061;-91
2021/05/16 07:47:38;;;;;;;17.67;6.10;;;12.40;99.90;;;;;;4988253;28;20037;-89
2021/05/16 07:50:06;;;;;;;13.50;4.72;;;12.60;99.90;;;;;;4970807;28;20031;-91
2021/05/16 07:52:32;;;;;;;21.85;5.78;;;12.70;99.90;;;;;;4988265;28;20030;-85
2021/05/16 07:54:57;;;;;;;15.32;5.57;;;12.50;99.90;;;;;;4988734;28;20031;-87
2021/05/16 07:57:23;;;;;;;15.10;5.15;;;12.70;99.90;;;;;;4970543;28;20094;-89
2021/05/16 07:59:49;;;;;;;18.77;5.30;;;12.60;99.90;;;;;;4954808;28;20053;-85
2021/05/16 08:02:14;;;;;;;18.20;5.10;;;12.60;99.90;;;;;;4953869;28;20062;-89
2021/05/16 08:04:40;;;;;;;19.10;8.13;;;12.60;99.90;;;;;;4955481;28;20034;-94
2021/05/16 08:07:05;;;;;;;18.15;6.10;;;12.60;99.90;;;;;;4972221;28;20043;-94
2021/05/16 08:09:32;;;;;;;20.42;7.20;;;12.80;99.90;;;;;;4988279;28;20035;-90
2021/05/16 08:11:59;;;;;;;16.67;6.53;;;12.80;99.90;;;;;;4970772;28;20027;-93
2021/05/16 08:14:28;;;;;;;26.48;8.45;;;12.90;99.90;;;;;;4970880;28;20039;-91
2021/05/16 08:16:55;;;;;;;18.88;6.78;;;12.60;99.90;;;;;;4970652;28;20213;-94
2021/05/16 08:19:21;;;;;;;23.20;9.27;;;12.90;99.90;;;;;;4988134;28;20046;-90
2021/05/16 08:21:47;;;;;;;21.20;10.60;;;12.50;99.90;;;;;;4987900;28;20035;-91
2021/05/16 08:24:14;;;;;;;23.20;9.73;;;12.50;99.90;;;;;;4970608;28;20034;-90
2021/05/16 08:26:40;;;;;;;19.02;7.53;;;12.70;99.90;;;;;;4958243;28;20486;-89
2021/05/16 08:29:06;;;;;;;17.00;7.05;;;13.00;99.90;;;;;;4989505;28;20507;-88
2021/05/16 08:31:35;;;;;;;17.65;6.35;;;12.90;99.90;;;;;;4973236;28;20049;-93
2021/05/16 08:34:08;;;;;;;22.20;7.90;;;13.10;99.90;;;;;;4973449;28;20027;-90
2021/05/16 08:36:35;;;;;;;20.63;7.03;;;13.20;99.90;;;;;;4989135;28;20109;-89
2021/05/16 08:39:01;;;;;;;15.20;6.88;;;13.40;99.90;;;;;;4989938;28;20034;-93
2021/05/16 08:41:27;;;;;;;15.60;6.47;;;13.10;99.90;;;;;;4989736;28;20066;-93
2021/05/16 08:43:54;;;;;;;13.23;5.28;;;13.20;99.90;;;;;;4990007;28;20027;-92
2021/05/16 08:46:21;;;;;;;19.85;7.38;;;13.40;99.90;;;;;;5002477;28;20038;-94
2021/05/16 08:48:46;;;;;;;20.25;7.32;;;13.00;99.90;;;;;;4986914;28;20027;-95
2021/05/16 08:51:15;;;;;;;15.52;6.60;;;13.20;99.90;;;;;;4985867;28;20041;-93
2021/05/16 08:53:41;;;;;;;14.30;5.97;;;13.60;99.90;;;;;;5002011;28;20058;-90
2021/05/16 08:56:06;;;;;;;25.50;7.05;;;13.70;99.90;;;;;;5001894;28;20027;-89
2021/05/16 08:58:33;;;;;;;18.13;7.68;;;13.70;99.90;;;;;;5004334;28;20045;-88
2021/05/16 09:00:59;;;;;;;14.27;5.97;;;13.70;99.90;;;;;;5005803;28;20034;-92
2021/05/16 09:03:25;;;;;;;20.45;8.02;;;14.00;99.90;;;;;;5005456;28;20041;-89
2021/05/16 09:06:12;;;;;;;14.32;7.80;;;14.00;99.90;;;;;;4995244;28;20041;-92
2021/05/16 09:08:37;;;;;;;18.10;10.32;;;14.30;99.90;;;;;;4935150;29;20066;-91
2021/05/16 09:11:07;;;;;;;22.60;9.15;;;14.00;99.90;;;;;;4932203;29;20048;-86
2021/05/16 09:13:35;;;;;;;21.40;9.98;;;13.50;99.90;;;;;;4927197;29;20036;-89
2021/05/16 09:16:15;;;;;;;16.70;9.35;;;13.40;99.90;;;;;;4930943;29;20039;-90
2021/05/16 09:18:51;;;;;;;22.65;10.32;;;13.60;99.90;;;;;;4930676;29;20068;-89
2021/05/16 09:21:24;;;;;;;26.83;10.75;;;14.30;99.90;;;;;;4930525;29;20062;-95
2021/05/16 09:24:13;;;;;;;21.65;9.40;;;13.90;99.90;;;;;;4946593;29;20036;-92
2021/05/16 09:26:52;;;;;;;20.98;10.23;;;13.50;99.90;;;;;;4946304;29;20079;-87
2021/05/16 09:29:21;;;;;;;15.82;7.97;;;13.40;99.90;;;;;;4946724;29;20043;-92
2021/05/16 09:31:54;;;;;;;22.08;9.00;;;14.20;99.90;;;;;;4946910;29;20496;-91
2021/05/16 09:34:21;;;;;;;21.70;7.80;;;14.30;99.90;;;;;;4908900;29;20129;-91
2021/05/16 09:36:47;;;;;;;15.93;6.57;;;15.20;99.90;;;;;;4927564;29;20049;-89
2021/05/16 09:39:34;;;;;;;12.50;5.63;;;15.50;99.90;;;;;;4945745;29;20116;-89
2021/05/16 09:42:03;;;;;;;13.68;4.35;;;15.30;99.90;;;;;;4929715;29;20036;-88
2021/05/16 09:44:40;;;;;;;14.65;4.18;;;14.30;99.90;;;;;;4945622;29;20409;-91
2021/05/16 09:47:27;;;;;;;13.90;3.95;;;14.20;99.90;;;;;;4988262;28;20034;-89
2021/05/16 09:50:01;;;;;;;10.90;3.03;;;14.60;99.90;;;;;;4987692;28;20088;-93
2021/05/16 09:52:29;;;;;;;10.85;2.33;;;14.50;99.90;;;;;;4988223;28;20435;-92
2021/05/16 09:55:10;;;;;;;13.00;2.50;;;14.70;99.90;;;;;;4988455;28;20081;-85
2021/05/16 09:57:37;;;;;;;10.43;1.73;;;15.10;99.90;;;;;;4988250;28;20105;-86
2021/05/16 10:00:14;;;;;;;7.80;1.70;;;16.00;99.90;;;;;;5004378;28;20502;-88
2021/05/16 10:02:41;;;;;;;12.85;2.22;;;15.70;99.90;;;;;;5005512;28;20057;-88
2021/05/16 10:05:09;;;;;;;11.60;1.30;;;15.40;99.90;;;;;;5003752;28;20036;-90
2021/05/16 10:07:37;;;;;;;11.82;1.42;;;15.70;99.90;;;;;;4987952;28;20038;-88
2021/05/16 10:10:04;;;;;;;9.95;1.27;;;15.20;99.90;;;;;;4988007;28;20397;-86
2021/05/16 10:12:30;;;;;;;8.50;1.70;;;15.20;99.90;;;;;;5005510;28;20042;-85
2021/05/16 10:15:10;;;;;;;7.88;0.85;;;14.90;99.90;;;;;;5004241;28;20030;-91
2021/05/16 10:17:39;;;;;;;8.20;1.17;;;14.90;99.90;;;;;;4987844;28;20034;-88
2021/05/16 10:20:13;;;;;;;8.48;0.90;;;15.10;99.90;;;;;;4987078;28;20072;-88
2021/05/16 10:22:40;;;;;;;10.10;1.35;;;15.50;99.90;;;;;;5005442;28;20058;-87
2021/05/16 10:25:07;;;;;;;9.60;1.15;;;16.00;99.90;;;;;;4989123;28;20041;-88
2021/05/16 10:27:42;;;;;;;11.23;1.17;;;15.70;99.90;;;;;;5008810;28;20080;-91
2021/05/16 10:30:11;;;;;;;10.95;1.70;;;15.60;99.90;;;;;;4991496;28;20061;-89
2021/05/16 10:32:47;;;;;;;15.05;2.20;;;15.70;99.90;;;;;;4991479;28;20045;-91
2021/05/16 10:35:14;;;;;;;8.57;1.15;;;16.10;99.90;;;;;;4991438;28;20037;-87
2021/05/16 10:38:00;;;;;;;8.52;1.95;;;16.60;99.90;;;;;;4991612;28;20030;-87
2021/05/16 10:40:31;;;;;;;8.27;1.00;;;16.30;99.90;;;;;;5008030;28;20057;-92
2021/05/16 10:42:59;;;;;;;9.95;1.25;;;15.50;99.90;;;;;;4991643;28;20355;-87
2021/05/16 10:45:36;;;;;;;10.10;1.65;;;15.60;99.90;;;;;;5008771;28;20129;-89
2021/05/16 10:48:05;;;;;;;12.98;2.10;;;15.60;99.90;;;;;;4991262;28;20034;-89
2021/05/16 10:50:37;;;;;;;10.82;1.65;;;15.10;99.90;;;;;;4990560;28;20050;-88
2021/05/16 10:53:05;;;;;;;9.55;1.13;;;15.30;99.90;;;;;;4991190;28;20042;-88
2021/05/16 10:55:41;;;;;;;10.30;0.70;;;16.00;99.90;;;;;;4990977;28;20057;-87
2021/05/16 10:58:27;;;;;;;7.07;0.50;;;16.60;99.90;;;;;;4991076;28;20057;-88
2021/05/16 11:01:04;;;;;;;5.47;0.85;;;16.70;99.90;;;;;;4990543;28;20038;-89
2021/05/16 11:03:43;;;;;;;6.05;0.60;;;17.10;99.90;;;;;;5008340;28;20404;-83
2021/05/16 11:09:14;;;;;;;12.43;1.40;;;17.30;99.90;;;;;;5006630;28;20065;-90
2021/05/16 11:11:49;;;;;;;6.75;0.70;;;17.80;99.90;;;;;;5008233;28;20394;-87
2021/05/16 11:14:19;;;;;;;5.22;0.70;;;17.20;99.90;;;;;;4993896;28;20041;-87
2021/05/16 11:16:46;;;;;;;;;;;16.10;99.90;;;;;;4988534;28;20031;-87
2021/05/16 11:19:11;;;;;;;10.27;0.60;;;15.80;99.90;;;;;;4976561;28;19924;-83
2021/05/16 11:21:37;;;;;;;8.30;0.88;;;16.70;99.90;;;;;;5008223;28;20038;-87
2021/05/16 11:24:04;;;;;;;3.17;0.50;;;17.00;99.90;;;;;;4991010;28;20034;-87
2021/05/16 11:26:30;;;;;;;7.50;0.88;;;18.10;99.90;;;;;;5006762;28;20049;-86
2021/05/16 11:28:57;;;;;;;3.58;0.50;;;17.70;99.90;;;;;;4982624;28;20030;-86
2021/05/16 11:31:25;;;;;;;7.38;0.65;;;18.00;99.90;;;;;;4987403;28;20039;-88
2021/05/16 11:33:59;;;;;;;5.88;0.50;;;18.40;99.90;;;;;;4988759;28;20041;-87
2021/05/16 11:36:30;;;;;;;6.30;0.50;;;18.30;99.90;;;;;;4971666;28;20035;-89
2021/05/16 11:38:58;;;;;;;7.68;0.60;;;18.20;99.90;;;;;;4988942;28;20102;-89
2021/05/16 11:41:28;;;;;;;4.18;0.40;;;18.50;99.90;;;;;;4970705;28;20370;-86
2021/05/16 11:43:54;;;;;;;5.00;0.40;;;17.90;99.90;;;;;;4988264;28;20031;-85
2021/05/16 11:46:28;;;;;;;4.25;0.60;;;17.90;99.90;;;;;;4994019;28;20030;-86
2021/05/16 11:48:54;;;;;;;3.90;0.50;;;18.10;99.90;;;;;;4993214;28;20026;-82
2021/05/16 11:51:21;;;;;;;5.07;0.60;;;18.60;99.90;;;;;;5007673;28;20455;-84
2021/05/16 11:53:54;;;;;;;4.25;0.50;;;18.20;99.90;;;;;;4974332;28;20030;-86
2021/05/16 11:56:28;;;;;;;4.40;0.60;;;18.20;99.90;;;;;;4990690;28;20034;-89
2021/05/16 11:59:13;;;;;;;4.05;0.38;;;18.70;99.90;;;;;;4990617;28;20033;-84
2021/05/16 12:01:41;;;;;;;2.35;0.30;;;19.00;99.90;;;;;;4988833;28;20038;-87
2021/05/16 12:04:13;;;;;;;2.22;0.30;;;19.30;99.90;;;;;;5008222;28;20081;-86
2021/05/16 12:06:53;;;;;;;4.43;0.43;;;19.20;99.90;;;;;;4992009;28;20090;-85
2021/05/16 12:09:20;;;;;;;4.18;0.40;;;19.10;99.90;;;;;;5026238;28;20050;-88
2021/05/16 12:11:51;;;;;;;7.32;0.50;;;18.50;99.90;;;;;;5027847;28;20117;-87
2021/05/16 12:14:24;;;;;;;5.60;0.50;;;17.60;99.90;;;;;;5026106;28;20034;-87
2021/05/16 12:17:00;;;;;;;5.63;0.52;;;16.90;99.90;;;;;;5025876;28;20466;-84
2021/05/16 12:19:29;;;;;;;5.63;0.60;;;16.40;99.90;;;;;;5025663;28;20128;-83
2021/05/16 12:22:03;;;;;;;5.70;0.50;;;15.50;99.90;;;;;;5025534;28;20124;-84
2021/05/16 12:24:31;;;;;;;6.25;1.00;;;14.40;99.90;;;;;;4995141;28;20428;-93
2021/05/16 12:26:57;;;;;;;3.65;0.45;;;13.40;99.90;;;;;;5009256;28;20032;-92
2021/05/16 12:29:25;;;;;;;6.32;0.70;;;12.70;99.90;;;;;;5025684;28;20129;-89
2021/05/16 12:31:54;;;;;;;4.55;0.60;;;12.70;99.90;;;;;;5009633;28;20079;-91
2021/05/16 12:34:24;;;;;;;4.10;0.82;;;12.80;99.90;;;;;;5027289;28;20037;-94
2021/05/16 12:36:59;;;;;;;6.15;0.98;;;13.00;99.90;;;;;;5028271;28;20173;-95
2021/05/16 12:39:42;;;;;;;4.60;0.70;;;13.10;99.90;;;;;;5010450;28;20490;-90
2021/05/16 12:42:40;;;;;;;4.07;0.90;;;12.70;99.90;;;;;;5007572;28;20095;-95
2021/05/16 12:45:27;;;;;;;4.18;0.65;;;12.90;99.90;;;;;;4993493;28;20685;-96
2021/05/16 12:48:10;;;;;;;3.97;0.55;;;13.10;99.90;;;;;;4992727;28;20100;-94
2021/05/16 12:50:41;;;;;;;4.15;0.80;;;13.90;99.90;;;;;;4992756;28;20030;-96
2021/05/16 12:53:28;;;;;;;2.28;0.40;;;13.90;99.90;;;;;;4993213;28;20040;-87